Time;durP1;ratioP1;P1;durP2;ratioP2;P2;SDS_P1;SDS_P2;PMS_P1;PMS_P2;Temp;Humidity;BMP_temperature;BMP_pressure;BME280_temperature;BME280_humidity;BME280_pressure;Samples;Min_cycle;Max_cycle;Signal;HPM_P1;HPM_P2
2023/01/16 00:01:43;;;;;;;8.00;3.47;;;;;;;4.00;100.00;99650.56;5020947;28;20392;-74
2023/01/16 00:04:08;;;;;;;5.93;3.25;;;;;;;3.93;100.00;99641.50;5027615;28;20030;-74
2023/01/16 00:06:35;;;;;;;6.43;3.15;;;;;;;3.84;100.00;99636.34;5022577;28;20037;-74
2023/01/16 00:09:02;;;;;;;7.53;3.10;;;;;;;3.83;100.00;99637.34;5020797;28;20044;-74
2023/01/16 00:11:27;;;;;;;8.80;3.42;;;;;;;3.84;100.00;99628.22;5023104;28;20025;-74
2023/01/16 00:13:53;;;;;;;8.70;2.83;;;;;;;3.85;100.00;99621.78;5021378;28;20460;-74
2023/01/16 00:16:19;;;;;;;5.97;2.80;;;;;;;3.75;100.00;99613.91;5021350;28;20121;-74
2023/01/16 00:18:44;;;;;;;10.02;3.17;;;;;;;3.74;100.00;99612.22;5025857;28;20037;-75
2023/01/16 00:21:10;;;;;;;10.02;3.30;;;;;;;3.69;100.00;99616.53;5011924;28;20037;-75
2023/01/16 00:23:36;;;;;;;6.50;3.55;;;;;;;3.68;100.00;99617.56;5015773;28;20021;-73
2023/01/16 00:26:05;;;;;;;17.50;4.45;;;;;;;3.68;100.00;99604.03;5019980;28;20061;-73
2023/01/16 00:28:32;;;;;;;10.77;5.40;;;;;;;3.78;100.00;99604.56;5021906;28;20018;-74
2023/01/16 00:30:59;;;;;;;13.25;5.55;;;;;;;3.74;100.00;99601.41;5020000;28;20085;-74
2023/01/16 00:33:24;;;;;;;21.48;5.95;;;;;;;3.79;100.00;99595.44;5015552;28;20049;-74
2023/01/16 00:35:51;;;;;;;15.98;5.05;;;;;;;3.71;100.00;99596.38;5019076;28;20041;-73
2023/01/16 00:38:16;;;;;;;;;;;;;;;3.75;100.00;99589.53;5020464;28;20720;-73
2023/01/16 00:40:42;;;;;;;13.13;6.00;;;;;;;3.73;100.00;99582.63;5027139;28;19924;-74
2023/01/16 00:43:07;;;;;;;10.30;5.82;;;;;;;3.76;100.00;99576.84;5021598;28;20393;-74
2023/01/16 00:45:33;;;;;;;16.10;5.20;;;;;;;3.72;100.00;99576.38;5020503;28;20021;-74
2023/01/16 00:47:58;;;;;;;12.93;5.50;;;;;;;3.75;100.00;99567.06;5021823;28;20393;-74
2023/01/16 00:50:24;;;;;;;18.23;5.55;;;;;;;3.77;100.00;99564.97;5017475;28;20065;-75
2023/01/16 00:52:50;;;;;;;12.80;5.03;;;;;;;3.71;100.00;99552.19;5008007;28;20033;-74
2023/01/16 00:55:15;;;;;;;12.35;4.60;;;;;;;3.76;100.00;99544.34;5022246;28;20041;-74
2023/01/16 00:57:41;;;;;;;18.83;5.57;;;;;;;3.69;100.00;99543.44;5022929;28;20073;-73
2023/01/16 01:00:07;;;;;;;14.02;5.57;;;;;;;3.74;100.00;99543.72;5020081;28;20125;-75
2023/01/16 01:02:33;;;;;;;21.52;4.95;;;;;;;3.72;100.00;99537.63;5018377;28;20029;-74
2023/01/16 01:04:58;;;;;;;18.83;4.45;;;;;;;3.70;100.00;99535.09;5020899;28;20037;-74
2023/01/16 01:07:24;;;;;;;17.50;5.03;;;;;;;3.62;100.00;99527.06;5016555;28;20486;-74
2023/01/16 01:09:49;;;;;;;18.17;5.22;;;;;;;3.67;100.00;99523.81;5022317;28;20120;-75
2023/01/16 01:12:15;;;;;;;12.93;4.75;;;;;;;3.69;100.00;99516.34;5019688;28;20029;-75
2023/01/16 01:14:40;;;;;;;15.27;5.00;;;;;;;3.63;100.00;99507.09;5020300;28;20056;-74
2023/01/16 01:17:05;;;;;;;13.18;4.40;;;;;;;3.61;100.00;99497.47;5023404;28;20037;-75
2023/01/16 01:19:31;;;;;;;12.68;4.60;;;;;;;3.71;100.00;99493.47;5025051;28;20025;-74
2023/01/16 01:21:57;;;;;;;13.90;3.83;;;;;;;3.68;100.00;99483.00;5019330;28;20033;-74
2023/01/16 01:24:22;;;;;;;9.95;3.63;;;;;;;3.70;100.00;99485.53;5013685;28;20275;-74
2023/01/16 01:26:48;;;;;;;14.30;3.88;;;;;;;3.72;100.00;99472.66;5020234;28;20515;-75
2023/01/16 01:29:13;;;;;;;10.75;4.20;;;;;;;3.60;100.00;99476.84;5021611;28;20026;-74
2023/01/16 01:31:38;;;;;;;13.00;4.78;;;;;;;3.61;100.00;99471.25;5019554;28;20042;-74
2023/01/16 01:34:04;;;;;;;13.52;3.45;;;;;;;3.66;100.00;99476.09;5018312;28;20493;-73
2023/01/16 01:36:29;;;;;;;12.55;3.60;;;;;;;3.60;100.00;99466.03;5026254;28;20033;-74
2023/01/16 01:38:55;;;;;;;9.07;3.10;;;;;;;3.63;100.00;99457.53;5021837;28;20029;-75
2023/01/16 01:41:21;;;;;;;11.07;3.90;;;;;;;3.62;100.00;99442.31;5017654;28;20168;-74
2023/01/16 01:43:52;;;;;;;9.68;3.10;;;;;;;3.64;100.00;99440.28;5019005;28;20017;-74
2023/01/16 01:46:35;;;;;;;10.32;3.30;;;;;;;3.64;100.00;99429.44;5019076;28;20469;-75
2023/01/16 01:49:14;;;;;;;10.38;4.10;;;;;;;3.66;100.00;99422.81;5011782;28;20033;-75
2023/01/16 01:51:42;;;;;;;10.57;3.55;;;;;;;3.66;100.00;99424.66;5020368;28;20050;-73
2023/01/16 01:54:20;;;;;;;10.00;3.22;;;;;;;3.67;100.00;99416.38;5052933;28;20369;-74
2023/01/16 01:57:06;;;;;;;10.10;3.25;;;;;;;3.61;100.00;99410.84;5021084;28;20046;-74
2023/01/16 01:59:40;;;;;;;12.15;3.33;;;;;;;3.60;100.00;99409.19;5022664;28;20454;-74
2023/01/16 02:02:11;;;;;;;6.82;3.13;;;;;;;3.61;100.00;99405.44;5022190;28;20341;-74
2023/01/16 02:04:41;;;;;;;12.27;3.55;;;;;;;3.58;100.00;99395.00;5020506;28;20044;-74
2023/01/16 02:07:09;;;;;;;9.70;3.75;;;;;;;3.59;100.00;99388.56;5027039;28;20030;-74
2023/01/16 02:09:35;;;;;;;16.10;4.78;;;;;;;3.53;100.00;99386.59;5037525;28;20132;-74
2023/01/16 02:12:05;;;;;;;9.38;3.88;;;;;;;3.59;100.00;99381.25;5026655;28;20536;-73
2023/01/16 02:14:35;;;;;;;10.40;3.47;;;;;;;3.59;100.00;99369.63;5025609;28;20095;-74
2023/01/16 02:20:10;;;;;;;7.20;3.50;;;;;;;3.55;100.00;99376.41;5020890;28;20041;-74
2023/01/16 02:22:35;;;;;;;7.28;3.00;;;;;;;3.68;100.00;99373.91;5024934;28;20099;-74
2023/01/16 02:25:34;;;;;;;5.95;2.90;;;;;;;3.68;100.00;99369.31;5023829;28;20052;-75
2023/01/16 02:28:12;;;;;;;9.15;2.88;;;;;;;3.71;100.00;99352.69;5028107;28;20133;-74
2023/01/16 02:30:55;;;;;;;;;;;;;;;3.64;100.00;99346.34;5024059;28;20067;-74
2023/01/16 02:33:39;;;;;;;7.20;2.40;;;;;;;3.54;100.00;99334.16;5040205;28;19940;-74
2023/01/16 02:36:31;;;;;;;8.00;2.47;;;;;;;3.62;100.00;99329.47;5021187;28;20026;-75
2023/01/16 02:39:08;;;;;;;6.97;2.03;;;;;;;3.57;100.00;99310.25;5018788;28;20037;-74
2023/01/16 02:41:53;;;;;;;6.90;2.20;;;;;;;3.46;100.00;99318.00;5021612;28;20029;-74
2023/01/16 02:44:38;;;;;;;8.77;2.33;;;;;;;3.40;100.00;99303.38;5023532;28;20029;-74
2023/01/16 02:47:20;;;;;;;10.63;1.85;;;;;;;3.41;100.00;99290.69;5023794;28;20029;-74
2023/01/16 02:50:02;;;;;;;8.07;2.47;;;;;;;3.33;100.00;99290.81;5022950;28;20054;-74
2023/01/16 02:52:46;;;;;;;7.18;2.05;;;;;;;3.39;100.00;99279.22;5024679;28;20065;-73
2023/01/16 02:55:14;;;;;;;4.90;1.58;;;;;;;3.27;100.00;99269.91;5020591;28;20052;-73
2023/01/16 02:57:45;;;;;;;5.15;1.75;;;;;;;3.26;100.00;99268.25;5022260;28;20378;-74
2023/01/16 03:00:16;;;;;;;8.20;2.03;;;;;;;3.29;100.00;99266.00;5025019;28;20029;-73
2023/01/16 03:02:42;;;;;;;8.82;1.80;;;;;;;3.30;100.00;99256.00;5021633;28;20029;-74
2023/01/16 03:05:08;;;;;;;4.25;1.58;;;;;;;3.36;100.00;99257.97;5024239;28;20104;-75
2023/01/16 03:08:16;;;;;;;5.72;1.73;;;;;;;3.41;100.00;99252.78;5024362;28;20033;-74
2023/01/16 03:11:04;;;;;;;9.32;2.05;;;;;;;3.43;100.00;99229.91;5026209;28;20032;-74
2023/01/16 03:13:43;;;;;;;9.27;2.15;;;;;;;3.34;100.00;99220.28;5017973;28;20038;-75
2023/01/16 03:16:18;;;;;;;6.85;1.70;;;;;;;3.31;100.00;99214.41;5025314;28;20037;-73
2023/01/16 03:19:05;;;;;;;10.05;1.40;;;;;;;3.34;100.00;99219.41;5029155;28;20033;-74
2023/01/16 03:21:52;;;;;;;9.55;2.78;;;;;;;3.48;100.00;99216.66;5055522;28;20037;-74
2023/01/16 03:24:26;;;;;;;7.40;1.70;;;;;;;3.38;100.00;99202.59;5023182;28;20029;-75
2023/01/16 03:27:02;;;;;;;4.70;1.80;;;;;;;3.35;100.00;99194.88;5022810;28;20026;-74
2023/01/16 03:29:39;;;;;;;7.15;1.50;;;;;;;3.33;100.00;99191.53;5020335;28;20036;-75
2023/01/16 03:32:29;;;;;;;8.23;1.60;;;;;;;3.31;100.00;99165.72;5022401;28;20330;-75
2023/01/16 03:35:06;;;;;;;6.45;1.63;;;;;;;3.26;100.00;99154.63;5026791;28;20052;-74
2023/01/16 03:37:41;;;;;;;8.98;1.73;;;;;;;3.32;100.00;99143.84;5020314;28;20393;-74
2023/01/16 03:40:11;;;;;;;4.20;1.65;;;;;;;3.37;100.00;99135.16;5022731;28;20132;-74
2023/01/16 03:42:44;;;;;;;9.13;1.88;;;;;;;3.29;100.00;99128.03;5020669;28;20026;-74
2023/01/16 03:45:16;;;;;;;8.80;2.10;;;;;;;3.24;100.00;99121.50;5026097;28;20144;-74
2023/01/16 03:47:54;;;;;;;6.35;1.85;;;;;;;3.27;100.00;99108.41;5023802;28;20076;-74
2023/01/16 03:50:22;;;;;;;5.80;1.88;;;;;;;3.27;100.00;99104.91;5023081;28;20030;-74
2023/01/16 03:52:53;;;;;;;7.15;2.63;;;;;;;3.25;100.00;99088.00;5050648;28;20392;-74
2023/01/16 03:55:34;;;;;;;5.95;1.70;;;;;;;3.30;100.00;99090.97;5023651;28;20029;-74
2023/01/16 03:58:06;;;;;;;5.78;1.52;;;;;;;3.28;100.00;99074.09;5017779;28;20558;-74
2023/01/16 04:00:44;;;;;;;7.93;1.90;;;;;;;3.30;100.00;99070.16;5018902;28;20030;-75
2023/01/16 04:03:18;;;;;;;4.65;1.90;;;;;;;3.27;100.00;99061.63;5020154;28;20026;-75
2023/01/16 04:06:05;;;;;;;9.27;2.50;;;;;;;3.27;100.00;99053.50;5024165;28;20032;-75
2023/01/16 04:08:38;;;;;;;5.90;1.77;;;;;;;3.33;100.00;99044.59;5021855;28;20470;-75
2023/01/16 04:11:05;;;;;;;9.13;2.33;;;;;;;3.38;100.00;99031.31;5034814;28;20492;-74
2023/01/16 04:13:37;;;;;;;7.40;1.90;;;;;;;3.44;100.00;99030.53;5020757;28;20030;-74
2023/01/16 04:16:10;;;;;;;6.30;1.80;;;;;;;3.38;100.00;99015.09;5022872;28;20513;-75
2023/01/16 04:18:36;;;;;;;6.88;1.63;;;;;;;3.37;100.00;99002.59;5020435;28;20034;-75
2023/01/16 04:21:07;;;;;;;4.00;1.80;;;;;;;3.31;100.00;99004.19;5024083;28;20507;-75
2023/01/16 04:23:33;;;;;;;9.65;1.75;;;;;;;3.31;100.00;98987.97;5025117;28;20032;-75
2023/01/16 04:26:00;;;;;;;13.98;2.28;;;;;;;3.27;100.00;98973.16;5020635;28;20079;-76
2023/01/16 04:28:25;;;;;;;8.25;2.50;;;;;;;3.37;100.00;98970.94;5020401;28;20581;-75
2023/01/16 04:30:51;;;;;;;8.15;1.95;;;;;;;3.36;100.00;98957.63;5025984;28;20064;-74
2023/01/16 04:33:16;;;;;;;13.98;3.15;;;;;;;3.37;100.00;98948.47;5017472;28;20029;-75
2023/01/16 04:35:42;;;;;;;5.60;1.90;;;;;;;3.41;100.00;98944.31;5017003;28;20038;-74
2023/01/16 04:38:08;;;;;;;3.08;1.42;;;;;;;3.47;100.00;98940.84;5021525;28;20041;-75
2023/01/16 04:40:34;;;;;;;7.30;1.73;;;;;;;3.48;100.00;98928.97;5021702;28;20507;-74
2023/01/16 04:42:59;;;;;;;13.55;2.30;;;;;;;3.56;100.00;98920.69;5023701;28;20107;-75
2023/01/16 04:45:25;;;;;;;12.38;2.85;;;;;;;3.71;100.00;98918.69;5021741;28;20496;-75
2023/01/16 04:47:51;;;;;;;8.27;2.10;;;;;;;3.70;100.00;98909.72;5028002;28;20480;-75
2023/01/16 04:50:17;;;;;;;7.78;1.80;;;;;;;3.66;100.00;98894.09;5019443;28;20069;-74
2023/01/16 04:52:43;;;;;;;4.53;1.63;;;;;;;3.63;100.00;98889.91;5017349;28;20115;-75
2023/01/16 04:55:09;;;;;;;13.43;2.47;;;;;;;3.70;100.00;98882.66;5024452;28;20370;-75
2023/01/16 04:57:35;;;;;;;11.05;2.22;;;;;;;3.66;100.00;98864.31;5016885;28;20046;-75
2023/01/16 05:00:01;;;;;;;11.38;2.00;;;;;;;3.70;100.00;98858.28;5016322;28;20038;-75
2023/01/16 05:02:26;;;;;;;9.68;2.13;;;;;;;3.72;100.00;98858.09;5005395;28;20034;-75
2023/01/16 05:04:52;;;;;;;8.20;1.98;;;;;;;3.70;100.00;98835.81;5021037;28;20436;-75
2023/01/16 05:07:17;;;;;;;8.07;2.10;;;;;;;3.74;100.00;98837.09;5023162;28;20463;-75
2023/01/16 05:09:43;;;;;;;7.10;2.10;;;;;;;3.79;100.00;98812.94;5019575;28;20123;-75
2023/01/16 05:12:08;;;;;;;12.23;2.55;;;;;;;3.84;100.00;98802.34;5019390;28;20032;-75
2023/01/16 05:14:33;;;;;;;6.32;2.20;;;;;;;3.86;100.00;98789.41;5021824;28;20471;-75
2023/01/16 05:16:59;;;;;;;7.55;2.00;;;;;;;3.94;100.00;98783.78;5024209;28;20043;-73
2023/01/16 05:19:24;;;;;;;5.82;2.03;;;;;;;3.89;100.00;98768.19;5020990;28;20037;-74
2023/01/16 05:21:49;;;;;;;10.65;3.40;;;;;;;4.03;100.00;98766.31;5018110;28;20028;-74
2023/01/16 05:24:15;;;;;;;11.55;2.25;;;;;;;3.97;100.00;98750.91;5021020;28;20729;-74
2023/01/16 05:26:40;;;;;;;12.95;2.15;;;;;;;4.02;100.00;98745.69;5020906;28;20367;-73
2023/01/16 05:29:06;;;;;;;5.07;2.42;;;;;;;3.96;100.00;98738.41;5023966;28;20540;-75
2023/01/16 05:31:31;;;;;;;9.77;2.50;;;;;;;3.94;100.00;98729.63;5026305;28;20064;-73
2023/01/16 05:33:57;;;;;;;9.77;2.17;;;;;;;3.90;100.00;98726.50;5027689;28;20107;-74
2023/01/16 05:36:22;;;;;;;13.40;2.40;;;;;;;3.89;100.00;98721.28;5022825;28;20077;-74
2023/01/16 05:38:47;;;;;;;5.70;1.92;;;;;;;3.91;100.00;98711.94;5025962;28;20531;-74
2023/01/16 05:41:13;;;;;;;8.52;2.15;;;;;;;3.87;100.00;98707.13;5024244;28;20087;-73
2023/01/16 05:43:38;;;;;;;5.40;1.65;;;;;;;3.85;100.00;98695.69;5030806;28;20064;-72
2023/01/16 05:46:04;;;;;;;9.43;2.10;;;;;;;3.85;100.00;98693.00;5039995;28;20033;-73
2023/01/16 05:48:31;;;;;;;7.40;1.40;;;;;;;3.90;100.00;98683.19;5027580;28;20021;-73
2023/01/16 05:50:57;;;;;;;9.63;2.25;;;;;;;3.90;100.00;98679.66;5030577;28;20033;-72
2023/01/16 05:53:22;;;;;;;9.40;2.35;;;;;;;3.91;100.00;98670.50;5026222;28;20036;-73
2023/01/16 05:55:48;;;;;;;7.38;1.83;;;;;;;3.91;100.00;98667.78;5026666;28;20358;-72
2023/01/16 05:58:16;;;;;;;9.20;1.95;;;;;;;3.88;100.00;98665.47;5028817;28;20042;-72
2023/01/16 06:00:41;;;;;;;7.75;1.98;;;;;;;3.87;100.00;98655.69;5026628;28;20108;-73
2023/01/16 06:03:08;;;;;;;6.88;1.60;;;;;;;3.94;100.00;98656.53;5020777;28;20116;-73
2023/01/16 06:05:34;;;;;;;5.35;2.35;;;;;;;3.91;100.00;98648.84;5027934;28;20022;-73
2023/01/16 06:07:59;;;;;;;13.48;2.10;;;;;;;3.96;100.00;98646.34;5025148;28;20048;-72
2023/01/16 06:10:26;;;;;;;3.80;2.10;;;;;;;3.97;100.00;98631.75;5024036;28;20034;-74
2023/01/16 06:12:52;;;;;;;;;;;;;;;3.95;100.00;98629.25;5027475;28;20149;-72
2023/01/16 06:15:17;;;;;;;9.25;2.33;;;;;;;4.05;100.00;98621.53;5025125;28;19955;-73
2023/01/16 06:17:43;;;;;;;19.15;3.13;;;;;;;3.97;100.00;98610.09;5030110;28;20702;-73
2023/01/16 06:20:10;;;;;;;7.05;1.88;;;;;;;4.02;100.00;98610.28;5027101;28;20529;-71
2023/01/16 06:22:35;;;;;;;13.32;2.28;;;;;;;4.03;100.00;98593.84;5023989;28;20556;-71
2023/01/16 06:25:01;;;;;;;9.43;2.10;;;;;;;4.10;100.00;98585.66;5027894;28;20167;-71
2023/01/16 06:27:26;;;;;;;10.90;2.58;;;;;;;4.03;100.00;98576.72;5032143;28;20026;-71
2023/01/16 06:29:52;;;;;;;11.15;2.05;;;;;;;4.03;100.00;98572.16;5024231;28;20063;-71
2023/01/16 06:32:17;;;;;;;7.55;2.13;;;;;;;4.05;100.00;98566.50;5024545;28;20036;-71
2023/01/16 06:34:43;;;;;;;6.70;1.80;;;;;;;4.06;100.00;98560.06;5027347;28;20491;-70
2023/01/16 06:37:09;;;;;;;9.48;2.20;;;;;;;4.07;100.00;98545.47;5029111;28;20030;-71
2023/01/16 06:39:34;;;;;;;11.20;2.47;;;;;;;4.05;100.00;98526.72;5021691;28;20064;-71
2023/01/16 06:42:03;;;;;;;6.95;1.88;;;;;;;4.10;100.00;98520.66;5027324;28;20445;-72
2023/01/16 06:44:28;;;;;;;7.95;1.80;;;;;;;4.12;100.00;98518.59;5028650;28;20374;-72
2023/01/16 06:46:54;;;;;;;14.70;2.13;;;;;;;4.13;100.00;98496.72;5029194;28;20044;-72
2023/01/16 06:49:19;;;;;;;6.50;1.90;;;;;;;4.22;100.00;98494.59;5023250;28;20108;-73
2023/01/16 06:51:44;;;;;;;8.82;1.90;;;;;;;4.18;100.00;98485.22;5026214;28;20122;-73
2023/01/16 06:54:10;;;;;;;10.88;1.90;;;;;;;4.27;100.00;98473.94;5024486;28;20029;-73
2023/01/16 06:56:35;;;;;;;6.22;1.63;;;;;;;4.23;100.00;98455.63;5024133;28;20195;-72
2023/01/16 06:59:01;;;;;;;15.02;2.80;;;;;;;4.22;100.00;98440.41;5024694;28;20130;-72
2023/01/16 07:01:26;;;;;;;8.07;2.40;;;;;;;4.18;100.00;98441.88;5019937;28;20036;-72
2023/01/16 07:03:52;;;;;;;5.38;1.85;;;;;;;4.22;100.00;98438.53;5025310;28;20033;-72
2023/01/16 07:06:17;;;;;;;7.75;1.73;;;;;;;4.16;100.00;98419.63;5023790;28;20422;-72
2023/01/16 07:08:43;;;;;;;9.27;2.10;;;;;;;4.15;100.00;98417.94;5023262;28;20108;-73
2023/01/16 07:11:08;;;;;;;13.80;1.90;;;;;;;4.15;100.00;98401.69;5026270;28;20499;-73
2023/01/16 07:13:34;;;;;;;8.20;1.70;;;;;;;4.17;100.00;98392.28;5023404;28;20039;-72
2023/01/16 07:24:19;;;;;;;9.80;1.83;;;;;;;4.12;100.00;98351.47;5024485;28;20033;-72
2023/01/16 07:26:47;;;;;;;8.05;1.80;;;;;;;4.14;100.00;98356.69;5023901;28;20032;-72
2023/01/16 07:29:13;;;;;;;8.48;1.50;;;;;;;4.14;100.00;98345.84;5022236;28;20036;-72
2023/01/16 07:31:40;;;;;;;10.63;1.55;;;;;;;4.17;100.00;98335.41;5027849;28;20025;-72
2023/01/16 07:34:05;;;;;;;;;;;;;;;4.16;100.00;98338.34;5023147;28;20033;-73
2023/01/16 07:36:31;;;;;;;5.28;1.85;;;;;;;4.17;100.00;98329.97;5018624;28;19916;-72
2023/01/16 07:38:56;;;;;;;9.10;1.90;;;;;;;4.17;100.00;98329.16;5021489;28;20025;-72
2023/01/16 07:41:21;;;;;;;7.50;1.77;;;;;;;4.17;100.00;98315.63;5025249;28;20025;-73
2023/01/16 07:43:47;;;;;;;6.18;1.80;;;;;;;4.17;100.00;98308.31;5025886;28;20086;-72
2023/01/16 07:46:12;;;;;;;9.45;1.58;;;;;;;4.18;100.00;98314.56;5021866;28;20482;-72
2023/01/16 07:48:38;;;;;;;6.15;2.10;;;;;;;4.20;100.00;98307.03;5022523;28;20029;-74
2023/01/16 07:51:04;;;;;;;10.05;1.63;;;;;;;4.15;100.00;98296.03;5022564;28;20117;-72
2023/01/16 07:53:30;;;;;;;10.50;1.42;;;;;;;4.26;100.00;98298.03;5019630;28;20033;-74
2023/01/16 07:55:58;;;;;;;5.20;1.80;;;;;;;4.24;100.00;98289.31;5016454;28;21054;-72
2023/01/16 07:58:24;;;;;;;7.53;1.58;;;;;;;4.19;100.00;98289.13;5020600;28;20135;-72
2023/01/16 08:00:55;;;;;;;10.55;2.38;;;;;;;4.20;100.00;98286.22;5023983;28;20033;-72
2023/01/16 08:03:21;;;;;;;11.32;1.90;;;;;;;4.24;100.00;98273.91;5018987;28;20025;-72
2023/01/16 08:05:47;;;;;;;2.70;1.30;;;;;;;4.25;100.00;98274.72;5023280;28;20472;-74
2023/01/16 08:08:13;;;;;;;7.03;1.50;;;;;;;4.27;100.00;98275.34;5026093;28;20469;-72
2023/01/16 08:10:39;;;;;;;6.95;1.40;;;;;;;4.25;100.00;98262.00;5020736;28;20092;-71
2023/01/16 08:13:05;;;;;;;4.88;1.83;;;;;;;4.24;100.00;98263.06;5025339;28;20033;-72
2023/01/16 08:15:30;;;;;;;10.27;1.70;;;;;;;4.27;100.00;98245.53;5026786;28;20040;-72
2023/01/16 08:17:56;;;;;;;5.18;1.65;;;;;;;4.27;100.00;98246.34;5023838;28;20380;-72
2023/01/16 08:20:22;;;;;;;2.10;1.38;;;;;;;4.25;100.00;98239.50;5022390;28;20041;-74
2023/01/16 08:22:49;;;;;;;6.82;1.40;;;;;;;4.24;100.00;98235.13;5028979;28;20028;-75
2023/01/16 08:25:16;;;;;;;4.68;1.55;;;;;;;4.23;100.00;98225.34;5022551;28;20030;-73
2023/01/16 08:27:42;;;;;;;5.35;1.60;;;;;;;4.23;100.00;98220.75;5021990;28;20022;-73
2023/01/16 08:30:11;;;;;;;4.45;1.40;;;;;;;4.24;100.00;98224.28;5025213;28;20052;-74
2023/01/16 08:32:36;;;;;;;4.63;1.30;;;;;;;4.21;100.00;98212.03;5027399;28;20099;-73
2023/01/16 08:35:05;;;;;;;5.60;1.60;;;;;;;4.23;100.00;98214.53;5019980;28;20029;-73
2023/01/16 08:37:32;;;;;;;5.43;2.05;;;;;;;4.25;100.00;98220.53;5020107;28;20382;-75
2023/01/16 08:39:57;;;;;;;5.57;1.38;;;;;;;4.34;100.00;98205.66;5025690;28;20528;-74
2023/01/16 08:53:21;;;;;;;5.57;1.92;;;;;;;4.41;100.00;98192.88;5022264;28;20028;-75
2023/01/16 08:55:46;;;;;;;4.78;2.10;;;;;;;4.34;100.00;98181.28;5022307;28;20873;-75
2023/01/16 08:58:12;;;;;;;9.02;1.90;;;;;;;4.32;100.00;98167.94;5024298;28;20124;-75
2023/01/16 09:00:37;;;;;;;2.33;1.70;;;;;;;4.38;100.00;98167.06;5024146;28;20076;-76
2023/01/16 09:03:02;;;;;;;3.83;1.70;;;;;;;4.42;100.00;98176.41;5022331;28;20022;-74
2023/01/16 09:05:28;;;;;;;5.43;1.85;;;;;;;4.42;100.00;98170.13;5020812;28;20072;-75
2023/01/16 09:07:53;;;;;;;2.03;1.58;;;;;;;4.46;100.00;98165.94;5018693;28;20033;-75
2023/01/16 09:10:19;;;;;;;4.43;1.70;;;;;;;4.44;100.00;98160.72;5022816;28;20029;-74
2023/01/16 09:15:28;;;;;;;4.70;2.03;;;;;;;4.45;100.00;98153.44;5023623;28;20040;-75
2023/01/16 09:17:54;;;;;;;13.90;2.65;;;;;;;4.54;100.00;98136.66;5021499;28;20038;-75
2023/01/16 09:20:19;;;;;;;3.70;1.60;;;;;;;4.48;100.00;98137.56;5022333;28;20033;-75
2023/01/16 09:22:45;;;;;;;4.60;1.33;;;;;;;4.57;100.00;98129.97;5025336;28;20374;-76
2023/01/16 09:25:11;;;;;;;2.13;1.58;;;;;;;4.50;100.00;98124.59;5023905;28;20037;-75
2023/01/16 09:27:36;;;;;;;4.07;1.50;;;;;;;4.54;100.00;98119.59;5021069;28;20108;-75
2023/01/16 09:30:03;;;;;;;4.78;1.98;;;;;;;4.57;100.00;98116.41;5021349;28;20026;-76
2023/01/16 09:32:28;;;;;;;7.60;1.80;;;;;;;4.59;100.00;98114.31;5025170;28;20022;-75
2023/01/16 09:34:53;;;;;;;6.10;1.42;;;;;;;4.56;100.00;98114.75;5021547;28;20515;-75
2023/01/16 09:37:19;;;;;;;3.17;1.88;;;;;;;4.57;100.00;98110.97;5020739;28;20172;-75
2023/01/16 09:39:44;;;;;;;3.63;1.60;;;;;;;4.60;100.00;98114.06;5020717;28;20034;-75
2023/01/16 09:45:33;;;;;;;4.82;1.90;;;;;;;4.56;100.00;98103.91;5024581;28;20035;-75
2023/01/16 09:48:04;;;;;;;3.60;1.55;;;;;;;4.58;100.00;98096.38;5025567;28;20453;-75
2023/01/16 09:50:51;;;;;;;6.57;1.67;;;;;;;4.64;100.00;98098.19;5023627;28;20140;-75
2023/01/16 09:59:06;;;;;;;2.55;1.90;;;;;;;4.61;100.00;98095.94;5014296;28;20068;-76
2023/01/16 10:01:43;;;;;;;6.35;1.83;;;;;;;4.70;100.00;98092.69;5025411;28;20083;-75
2023/01/16 10:04:19;;;;;;;1.65;1.55;;;;;;;4.71;100.00;98096.22;5028216;28;20120;-74
2023/01/16 10:07:21;;;;;;;1.38;1.15;;;;;;;4.72;100.00;98092.47;5022509;28;20033;-75
2023/01/16 10:10:05;;;;;;;2.92;1.40;;;;;;;4.66;100.00;98090.66;5019914;28;20038;-75
2023/01/16 10:12:34;;;;;;;1.85;1.30;;;;;;;4.72;100.00;98082.44;5024805;28;20104;-75
2023/01/16 10:15:34;;;;;;;2.28;1.13;;;;;;;4.73;100.00;98080.56;5019033;28;20025;-74
2023/01/16 10:18:23;;;;;;;2.92;1.08;;;;;;;4.77;100.00;98074.47;5025171;28;20036;-75
2023/01/16 10:21:07;;;;;;;2.55;1.60;;;;;;;4.80;100.00;98063.16;5021989;28;20049;-74
2023/01/16 10:23:53;;;;;;;2.35;1.40;;;;;;;4.82;100.00;98061.03;5025796;28;20492;-75
2023/01/16 10:26:24;;;;;;;1.15;1.05;;;;;;;4.89;100.00;98069.91;5027584;28;20025;-74
2023/01/16 10:29:14;;;;;;;3.10;1.13;;;;;;;4.93;100.00;98049.44;5024199;28;20044;-75
2023/01/16 10:31:54;;;;;;;2.15;0.90;;;;;;;5.09;100.00;98037.09;5020095;28;20106;-75
2023/01/16 10:34:29;;;;;;;1.05;1.00;;;;;;;5.17;100.00;98042.16;5019574;28;20072;-74
2023/01/16 10:36:57;;;;;;;3.70;1.00;;;;;;;5.40;100.00;98029.47;5025991;28;20036;-74
2023/01/16 10:39:30;;;;;;;5.00;1.42;;;;;;;5.58;100.00;98026.69;5030428;28;20087;-74
2023/01/16 10:50:29;;;;;;;1.67;1.20;;;;;;;6.28;100.00;98016.63;5025129;28;20037;-75
2023/01/16 10:52:54;;;;;;;1.10;1.00;;;;;;;6.25;100.00;98015.22;5028195;28;20476;-74
2023/01/16 10:55:20;;;;;;;2.33;1.10;;;;;;;6.23;100.00;98009.22;5024882;28;20032;-74
2023/01/16 10:57:57;;;;;;;1.40;1.10;;;;;;;6.43;100.00;98006.09;5024380;28;20549;-75
2023/01/16 11:00:30;;;;;;;1.23;1.13;;;;;;;6.58;100.00;98001.78;5026525;28;20048;-75
2023/01/16 11:03:03;;;;;;;0.95;0.90;;;;;;;6.46;99.82;98000.19;5022823;28;20093;-75
2023/01/16 11:05:32;;;;;;;1.00;0.90;;;;;;;6.41;100.00;97992.72;5025429;28;20025;-74
2023/01/16 11:08:14;;;;;;;2.90;0.80;;;;;;;6.42;100.00;97997.09;5022785;28;20033;-75
2023/01/16 11:10:43;;;;;;;0.80;0.80;;;;;;;6.30;100.00;97993.59;5022354;28;20387;-75
2023/01/16 11:19:18;;;;;;;0.98;0.90;;;;;;;6.05;100.00;97979.47;5026997;28;20040;-75
2023/01/16 11:21:47;;;;;;;0.98;0.90;;;;;;;6.03;100.00;97975.34;5022366;28;20022;-75
2023/01/16 11:24:19;;;;;;;4.80;0.80;;;;;;;6.00;100.00;97975.81;5052892;28;20038;-75
2023/01/16 11:26:53;;;;;;;0.90;0.90;;;;;;;5.90;100.00;97968.28;5016240;28;20478;-75
2023/01/16 11:29:23;;;;;;;1.00;0.80;;;;;;;5.78;100.00;97958.44;5021085;28;20033;-75
2023/01/16 11:31:54;;;;;;;1.55;1.00;;;;;;;5.80;100.00;97959.06;5020346;28;20025;-75
2023/01/16 11:34:26;;;;;;;0.75;0.70;;;;;;;5.73;100.00;97952.91;5019128;28;20076;-74
2023/01/16 11:36:54;;;;;;;1.30;0.90;;;;;;;5.60;100.00;97945.03;5019638;28;20065;-75
2023/01/16 11:39:23;;;;;;;0.80;0.80;;;;;;;5.57;100.00;97942.75;5023650;28;20029;-74
2023/01/16 11:41:51;;;;;;;0.82;0.70;;;;;;;5.50;100.00;97942.06;5024210;28;20026;-75
2023/01/16 11:47:14;;;;;;;1.15;0.90;;;;;;;5.58;100.00;97934.38;5027212;28;20083;-75
2023/01/16 11:49:44;;;;;;;1.15;0.95;;;;;;;5.61;100.00;97933.09;5024789;28;20501;-75
2023/01/16 11:52:26;;;;;;;1.25;0.77;;;;;;;5.66;100.00;97925.88;5024226;28;20456;-75
2023/01/16 11:54:55;;;;;;;0.80;0.80;;;;;;;5.60;100.00;97928.72;5024626;28;20057;-75
2023/01/16 11:57:25;;;;;;;2.00;0.90;;;;;;;5.57;100.00;97912.91;5022558;28;20038;-75
2023/01/16 12:00:01;;;;;;;3.75;1.05;;;;;;;5.59;100.00;97914.31;5023996;28;20044;-75
2023/01/16 12:02:51;;;;;;;1.25;1.00;;;;;;;5.61;100.00;97909.47;5025069;28;20095;-75
2023/01/16 12:08:20;;;;;;;2.03;1.08;;;;;;;5.54;100.00;97895.19;5022467;28;20116;-76
2023/01/16 12:11:11;;;;;;;3.03;1.17;;;;;;;5.60;100.00;97896.16;5019994;28;20068;-75
2023/01/16 12:14:23;;;;;;;2.55;1.42;;;;;;;5.62;100.00;97894.81;5020347;28;20037;-75
2023/01/16 12:16:51;;;;;;;2.17;1.30;;;;;;;5.65;100.00;97893.53;5005857;28;20385;-75
2023/01/16 12:19:54;;;;;;;2.42;1.05;;;;;;;5.55;100.00;97885.19;5021778;28;20936;-75
2023/01/16 12:22:32;;;;;;;2.42;1.33;;;;;;;5.56;100.00;97882.19;5018975;28;20481;-75
2023/01/16 12:25:25;;;;;;;1.25;1.10;;;;;;;5.52;100.00;97872.91;5022071;28;20073;-75
2023/01/16 12:27:59;;;;;;;0.95;0.90;;;;;;;5.54;100.00;97870.78;5025553;28;20465;-75
2023/01/16 12:34:16;;;;;;;1.58;1.25;;;;;;;5.57;100.00;97866.75;5023752;28;20474;-75
2023/01/16 12:37:00;;;;;;;2.85;1.67;;;;;;;5.52;100.00;97863.94;5024530;28;20043;-74
2023/01/16 12:40:03;;;;;;;1.65;1.40;;;;;;;5.54;100.00;97859.91;5022331;28;20668;-74
2023/01/16 12:45:12;;;;;;;1.33;1.00;;;;;;;5.49;100.00;97858.97;5025533;28;20040;-74
2023/01/16 12:47:44;;;;;;;1.55;1.35;;;;;;;5.46;100.00;97854.03;5022724;28;20025;-74